createdAt,value
2023-03-20T00:00:06.832Z,8.38
2023-03-20T00:00:36.394Z,8.38
2023-03-20T00:00:53.902Z,8.38
2023-03-20T00:01:25.722Z,8.38
2023-03-20T00:01:43.497Z,8.38
2023-03-20T00:02:13.606Z,8.38
2023-03-20T00:02:34.762Z,8.38
2023-03-20T00:03:01.707Z,8.38
2023-03-20T00:03:33.608Z,8.38
2023-03-20T00:04:06.441Z,8.27
2023-03-20T00:04:34.813Z,8.27
2023-03-20T00:04:53.699Z,8.27
2023-03-20T00:05:25.946Z,8.27
2023-03-20T00:05:42.796Z,8.27
2023-03-20T00:06:14.382Z,8.27
2023-03-20T00:06:34.819Z,8.38
2023-03-20T00:07:01.689Z,8.38
2023-03-20T00:07:33.886Z,8.38
2023-03-20T00:08:05.606Z,8.38
2023-03-20T00:08:34.805Z,8.38
2023-03-20T00:08:53.587Z,8.38
2023-03-20T00:09:26.401Z,8.27
2023-03-20T00:09:57.634Z,8.27
2023-03-20T00:10:30.500Z,8.27
2023-03-20T00:11:01.572Z,8.27
2023-03-20T00:11:34.376Z,8.27
2023-03-20T00:12:05.598Z,8.27
2023-03-20T00:12:36.007Z,8.27
2023-03-20T00:12:53.559Z,8.27
2023-03-20T00:13:34.944Z,8.27
2023-03-20T00:13:57.606Z,8.27
2023-03-20T00:14:29.619Z,8.27
2023-03-20T00:15:02.891Z,8.38
2023-03-20T00:15:35.003Z,8.38
2023-03-20T00:16:06.501Z,8.38
2023-03-20T00:16:34.783Z,8.38
2023-03-20T00:16:53.538Z,8.38
2023-03-20T00:17:25.713Z,8.38
2023-03-20T00:17:42.698Z,8.38
2023-03-20T00:18:14.307Z,7.77
2023-03-20T00:18:34.806Z,8.38
2023-03-20T00:19:01.646Z,8.38
2023-03-20T00:19:33.572Z,8.38
2023-03-20T00:20:05.739Z,8.27
2023-03-20T00:20:35.158Z,8.27
2023-03-20T00:20:53.759Z,8.27
2023-03-20T00:21:26.395Z,7.23
2023-03-20T00:21:57.573Z,8.27
2023-03-20T00:22:30.268Z,8.27
2023-03-20T00:23:01.681Z,7.64
2023-03-20T00:23:34.528Z,8.27
2023-03-20T00:24:05.599Z,8.27
2023-03-20T00:24:35.547Z,8.27
2023-03-20T00:24:53.576Z,8.27
2023-03-20T00:25:25.766Z,8.27
2023-03-20T00:25:43.398Z,8.27
2023-03-20T00:26:13.556Z,8.38
2023-03-20T00:26:34.776Z,8.38
2023-03-20T00:27:01.657Z,8.38
2023-03-20T00:27:33.973Z,8.38
2023-03-20T00:28:06.375Z,8.38
2023-03-20T00:28:35.295Z,8.38
2023-03-20T00:28:53.619Z,8.38
2023-03-20T00:29:25.762Z,8.38
2023-03-20T00:29:42.661Z,8.38
2023-03-20T00:30:14.485Z,8.38
2023-03-20T00:30:34.945Z,8.38
2023-03-20T00:31:01.613Z,8.38
2023-03-20T00:31:33.820Z,8.38
2023-03-20T00:32:05.616Z,8.38
2023-03-20T00:32:34.846Z,8.38
2023-03-20T00:32:53.658Z,8.38
2023-03-20T00:33:26.592Z,8.38
2023-03-20T00:33:57.540Z,8.38
2023-03-20T00:34:30.247Z,8.38
2023-03-20T00:35:01.773Z,8.38
2023-03-20T00:35:34.800Z,8.38
2023-03-20T00:36:05.673Z,8.38
2023-03-20T00:36:35.414Z,8.27
2023-03-20T00:36:53.614Z,8.27
2023-03-20T00:37:25.670Z,7.45
2023-03-20T00:37:43.537Z,8.27
2023-03-20T00:38:13.595Z,8.27
2023-03-20T00:38:34.754Z,8.27
2023-03-20T00:39:01.638Z,8.27
2023-03-20T00:39:33.687Z,8.27
2023-03-20T00:40:06.705Z,8.27
2023-03-20T00:40:34.878Z,8.27
2023-03-20T00:40:53.776Z,8.27
2023-03-20T00:41:25.690Z,7.08
2023-03-20T00:41:42.722Z,8.27
2023-03-20T00:42:14.377Z,7.45
2023-03-20T00:42:35.312Z,8.27
2023-03-20T00:43:01.693Z,8.27
2023-03-20T00:43:33.593Z,8.27
2023-03-20T00:44:05.956Z,8.27
2023-03-20T00:44:34.819Z,8.27
2023-03-20T00:44:53.605Z,8.27
2023-03-20T00:45:26.725Z,8.27
2023-03-20T00:45:57.538Z,8.27
2023-03-20T00:46:30.394Z,8.27
2023-03-20T00:47:01.895Z,8.27
2023-03-20T00:47:34.481Z,8.27
2023-03-20T00:48:05.639Z,8.27
2023-03-20T00:48:35.657Z,7.36
2023-03-20T00:48:53.784Z,7.64
2023-03-20T00:49:25.665Z,8.27
2023-03-20T00:49:43.420Z,8.27
2023-03-20T00:50:29.692Z,8.27
2023-03-20T00:51:01.528Z,8.27
2023-03-20T00:51:33.938Z,8.27
2023-03-20T00:52:05.693Z,8.27
2023-03-20T00:52:34.994Z,8.27
2023-03-20T00:52:54.466Z,7.64
2023-03-20T00:53:25.753Z,8.27
2023-03-20T00:53:42.677Z,8.27
2023-03-20T00:54:13.677Z,8.27
2023-03-20T00:54:35.034Z,8.27
2023-03-20T00:55:02.758Z,8.27
2023-03-20T00:55:34.346Z,8.27
2023-03-20T00:56:06.450Z,8.27
2023-03-20T00:56:35.027Z,8.27
2023-03-20T00:56:53.560Z,8.22
2023-03-20T00:57:25.693Z,8.22
2023-03-20T00:57:42.683Z,8.22
2023-03-20T00:58:14.245Z,8.22
2023-03-20T00:58:35.193Z,8.22
2023-03-20T00:59:01.580Z,8.22
2023-03-20T00:59:34.657Z,8.22
2023-03-20T01:00:06.178Z,8.22
2023-03-20T01:00:35.617Z,7.58
2023-03-20T01:00:53.984Z,8.22
2023-03-20T01:01:25.647Z,8.22
2023-03-20T01:01:43.641Z,7.58
2023-03-20T01:02:13.671Z,6.64
2023-03-20T01:02:34.867Z,7.49
2023-03-20T01:03:01.617Z,8.22
2023-03-20T01:03:33.992Z,8.22
2023-03-20T01:04:06.344Z,8.22
2023-03-20T01:04:34.999Z,8.22
2023-03-20T01:04:53.527Z,8.22
2023-03-20T01:05:25.746Z,8.22
2023-03-20T01:05:42.649Z,8.22
2023-03-20T01:06:14.390Z,8.22
2023-03-20T01:06:34.790Z,8.22
2023-03-20T01:07:01.521Z,8.22
2023-03-20T01:07:33.909Z,7.58
2023-03-20T01:08:05.564Z,7.31
2023-03-20T01:08:34.840Z,8.22
2023-03-20T01:08:53.619Z,8.22
2023-03-20T01:09:26.292Z,7.58
2023-03-20T01:09:42.753Z,7.49
2023-03-20T01:10:13.719Z,7.27
2023-03-20T01:10:34.848Z,6.50
2023-03-20T01:11:01.645Z,8.11
2023-03-20T01:11:34.240Z,8.11
2023-03-20T01:12:05.571Z,7.46
2023-03-20T01:12:35.426Z,8.11
2023-03-20T01:12:53.569Z,7.05
2023-03-20T01:13:25.692Z,6.89
2023-03-20T01:13:43.902Z,8.11
2023-03-20T01:14:13.653Z,8.11
2023-03-20T01:14:35.122Z,8.11
2023-03-20T01:15:02.138Z,8.11
2023-03-20T01:15:34.875Z,8.11
2023-03-20T01:16:06.376Z,8.11
2023-03-20T01:16:35.044Z,8.11
2023-03-20T01:16:53.663Z,8.11
2023-03-20T01:17:25.614Z,8.11
2023-03-20T01:17:42.662Z,8.11
2023-03-20T01:18:14.310Z,8.11
2023-03-20T01:18:34.870Z,8.11
2023-03-20T01:19:01.528Z,8.11
2023-03-20T01:19:33.891Z,8.11
2023-03-20T01:20:05.886Z,8.11
2023-03-20T01:20:34.789Z,8.11
2023-03-20T01:20:55.787Z,8.11
2023-03-20T01:21:26.377Z,8.11
2023-03-20T01:21:57.578Z,8.11
2023-03-20T01:22:30.267Z,8.11
2023-03-20T01:23:01.576Z,7.46
2023-03-20T01:23:34.528Z,8.11
2023-03-20T01:24:05.616Z,8.11
2023-03-20T01:24:35.423Z,8.11
2023-03-20T01:24:53.553Z,8.11
2023-03-20T01:25:25.945Z,8.00
2023-03-20T01:25:43.572Z,8.00
2023-03-20T01:26:13.602Z,8.00
2023-03-20T01:26:34.987Z,8.00
2023-03-20T01:27:01.859Z,8.00
2023-03-20T01:27:33.621Z,8.00
2023-03-20T01:28:06.425Z,8.00
2023-03-20T01:28:34.884Z,8.00
2023-03-20T01:28:53.549Z,8.00
2023-03-20T01:29:25.729Z,8.00
2023-03-20T01:29:42.598Z,8.00
2023-03-20T01:30:14.633Z,8.00
2023-03-20T01:30:35.579Z,8.00
2023-03-20T01:31:01.565Z,8.00
2023-03-20T01:31:33.573Z,8.00
2023-03-20T01:32:05.698Z,8.00
2023-03-20T01:32:34.942Z,8.00
2023-03-20T01:32:53.532Z,7.88
2023-03-20T01:33:26.514Z,7.88
2023-03-20T01:33:42.738Z,7.88
2023-03-20T01:34:13.545Z,7.88
2023-03-20T01:34:34.871Z,7.88
2023-03-20T01:35:01.827Z,7.88
2023-03-20T01:35:34.710Z,7.88
2023-03-20T01:36:05.626Z,7.88
2023-03-20T01:36:35.524Z,7.88
2023-03-20T01:36:53.563Z,7.77
2023-03-20T01:37:25.721Z,7.77
2023-03-20T01:37:43.458Z,7.77
2023-03-20T01:38:13.586Z,6.88
2023-03-20T01:38:34.830Z,6.88
2023-03-20T01:39:01.576Z,6.91
2023-03-20T01:39:33.548Z,6.82
2023-03-20T01:40:06.523Z,7.72
2023-03-20T01:40:34.749Z,7.72
2023-03-20T01:40:53.733Z,6.73
2023-03-20T01:41:25.745Z,7.61
2023-03-20T01:41:42.654Z,6.89
2023-03-20T01:42:14.187Z,6.89
2023-03-20T01:42:35.358Z,7.61
2023-03-20T01:43:01.702Z,7.61
2023-03-20T01:43:33.677Z,7.61
2023-03-20T01:44:05.914Z,7.61
2023-03-20T01:44:34.976Z,7.61
2023-03-20T01:44:53.519Z,7.61
2023-03-20T01:45:26.873Z,7.61
2023-03-20T01:45:57.631Z,7.61
2023-03-20T01:46:30.353Z,7.61
2023-03-20T01:47:01.590Z,7.50
2023-03-20T01:47:34.867Z,7.50
2023-03-20T01:48:05.895Z,7.50
2023-03-20T01:48:35.433Z,7.50
2023-03-20T01:48:53.536Z,7.50
2023-03-20T01:49:25.712Z,7.50
2023-03-20T01:49:58.378Z,7.50
2023-03-20T01:50:29.770Z,7.50
2023-03-20T01:51:02.407Z,7.50
2023-03-20T01:51:33.803Z,7.38
2023-03-20T01:52:06.319Z,7.38
2023-03-20T01:52:34.816Z,7.38
2023-03-20T01:52:53.550Z,7.38
2023-03-20T01:53:25.684Z,7.38
2023-03-20T01:53:42.644Z,7.38
2023-03-20T01:54:14.223Z,7.38
2023-03-20T01:54:34.893Z,7.27
2023-03-20T01:55:01.814Z,7.27
2023-03-20T01:55:33.931Z,6.50
2023-03-20T01:56:05.555Z,7.27
2023-03-20T01:56:34.905Z,7.27
2023-03-20T01:56:53.510Z,5.83
2023-03-20T01:57:26.317Z,5.64
2023-03-20T01:57:42.699Z,7.27
2023-03-20T01:58:13.571Z,7.27
2023-03-20T01:58:35.165Z,7.27
2023-03-20T01:59:01.606Z,7.27
2023-03-20T01:59:34.419Z,7.27
2023-03-20T02:00:06.105Z,7.27
2023-03-20T02:00:54.552Z,7.27
2023-03-20T02:01:25.708Z,7.27
2023-03-20T02:01:42.626Z,7.27
2023-03-20T02:02:13.618Z,7.27
2023-03-20T02:02:34.846Z,7.27
2023-03-20T02:03:02.457Z,7.27
2023-03-20T02:03:33.516Z,7.27
2023-03-20T02:04:06.640Z,7.27
2023-03-20T02:04:35.002Z,7.27
2023-03-20T02:04:53.631Z,7.27
2023-03-20T02:05:25.864Z,7.27
2023-03-20T02:05:43.533Z,7.27
2023-03-20T02:06:14.318Z,7.22
2023-03-20T02:06:34.900Z,7.22
2023-03-20T02:07:01.603Z,7.22
2023-03-20T02:07:33.570Z,7.22
2023-03-20T02:08:05.607Z,7.22
2023-03-20T02:08:34.855Z,7.22
2023-03-20T02:08:53.548Z,7.22
2023-03-20T02:09:26.295Z,7.22
2023-03-20T02:09:42.800Z,7.22
2023-03-20T02:10:13.741Z,7.11
2023-03-20T02:10:35.653Z,7.11
2023-03-20T02:11:01.566Z,7.11
2023-03-20T02:11:33.526Z,7.11
2023-03-20T02:12:05.617Z,7.11
2023-03-20T02:12:34.779Z,7.11
2023-03-20T02:12:54.415Z,7.11
2023-03-20T02:13:25.570Z,7.11
2023-03-20T02:13:42.626Z,7.11
2023-03-20T02:14:13.649Z,7.11
2023-03-20T02:14:34.856Z,7.11
2023-03-20T02:15:02.775Z,7.11
2023-03-20T02:15:33.839Z,7.11
2023-03-20T02:16:06.884Z,7.00
2023-03-20T02:16:34.953Z,7.00
2023-03-20T02:16:53.702Z,7.00
2023-03-20T02:17:25.701Z,7.00
2023-03-20T02:17:42.689Z,7.00
2023-03-20T02:18:14.393Z,7.00
2023-03-20T02:18:34.775Z,7.00
2023-03-20T02:19:01.548Z,7.00
2023-03-20T02:19:33.528Z,7.00
2023-03-20T02:20:05.782Z,7.00
2023-03-20T02:20:34.889Z,7.00
2023-03-20T02:20:53.966Z,7.00
2023-03-20T02:21:26.319Z,7.00
2023-03-20T02:21:42.762Z,7.00
2023-03-20T02:22:13.722Z,6.88
2023-03-20T02:22:35.374Z,6.88
2023-03-20T02:23:01.551Z,6.88
2023-03-20T02:23:34.694Z,6.88
2023-03-20T02:24:05.567Z,6.88
2023-03-20T02:24:35.652Z,6.88
2023-03-20T02:24:53.557Z,6.88
2023-03-20T02:25:25.781Z,6.88
2023-03-20T02:25:43.564Z,6.88
2023-03-20T02:26:13.511Z,6.88
2023-03-20T02:26:35.415Z,6.88
2023-03-20T02:27:01.640Z,6.88
2023-03-20T02:27:33.794Z,6.88
2023-03-20T02:28:06.437Z,6.88
2023-03-20T02:28:35.355Z,6.88
2023-03-20T02:28:53.588Z,6.88
2023-03-20T02:29:25.645Z,6.77
2023-03-20T02:29:42.712Z,6.77
2023-03-20T02:30:30.744Z,6.77
2023-03-20T02:31:01.636Z,6.77
2023-03-20T02:31:34.292Z,6.77
2023-03-20T02:32:05.584Z,6.77
2023-03-20T02:32:36.572Z,6.77
2023-03-20T02:32:53.639Z,6.77
2023-03-20T02:33:25.760Z,6.77
2023-03-20T02:33:43.767Z,6.77
2023-03-20T02:34:13.704Z,6.77
2023-03-20T02:34:35.221Z,6.77
2023-03-20T02:35:01.729Z,6.77
2023-03-20T02:35:34.090Z,6.77
2023-03-20T02:36:06.736Z,6.77
2023-03-20T02:36:34.829Z,6.77
2023-03-20T02:36:53.561Z,6.77
2023-03-20T02:37:25.630Z,6.77
2023-03-20T02:37:42.638Z,6.77
2023-03-20T02:38:14.337Z,6.77
2023-03-20T02:38:34.956Z,6.77
2023-03-20T02:39:01.531Z,6.77
2023-03-20T02:39:33.564Z,6.77
2023-03-20T02:40:05.738Z,6.72
2023-03-20T02:40:35.331Z,6.72
2023-03-20T02:40:53.740Z,6.72
2023-03-20T02:41:26.506Z,6.72
2023-03-20T02:41:57.551Z,6.72
2023-03-20T02:42:32.544Z,6.72
2023-03-20T02:43:01.606Z,6.72
2023-03-20T02:43:34.487Z,6.72
2023-03-20T02:44:05.887Z,6.72
2023-03-20T02:44:35.715Z,6.72
2023-03-20T02:44:53.616Z,6.72
2023-03-20T02:45:25.915Z,6.72
2023-03-20T02:45:43.452Z,6.61
2023-03-20T02:46:13.570Z,6.61
2023-03-20T02:46:34.944Z,6.61
2023-03-20T02:47:01.640Z,6.61
2023-03-20T02:47:33.689Z,6.61
2023-03-20T02:48:06.552Z,6.61
2023-03-20T02:48:34.929Z,6.61
2023-03-20T02:48:53.532Z,6.61
2023-03-20T02:49:25.708Z,6.61
2023-03-20T02:49:42.666Z,6.61
2023-03-20T02:50:14.508Z,6.61
2023-03-20T02:50:34.924Z,6.61
2023-03-20T02:51:01.812Z,6.61
2023-03-20T02:51:34.214Z,6.61
2023-03-20T02:52:05.564Z,6.50
2023-03-20T02:52:34.869Z,6.50
2023-03-20T02:52:53.541Z,6.50
2023-03-20T02:53:26.521Z,6.50
2023-03-20T02:53:57.559Z,6.50
2023-03-20T02:54:30.503Z,6.50
2023-03-20T02:55:01.724Z,6.50
2023-03-20T02:55:34.987Z,6.50
2023-03-20T02:56:05.570Z,6.50
2023-03-20T02:56:35.555Z,6.50
2023-03-20T02:56:53.609Z,6.38
2023-03-20T02:57:25.665Z,6.38
2023-03-20T02:57:43.502Z,6.38
2023-03-20T02:58:13.514Z,6.38
2023-03-20T02:58:34.851Z,6.38
2023-03-20T02:59:01.505Z,6.38
2023-03-20T02:59:34.936Z,6.38
2023-03-20T03:00:06.870Z,6.38
2023-03-20T03:00:34.849Z,6.38
2023-03-20T03:00:53.972Z,6.38
2023-03-20T03:01:25.839Z,6.38
2023-03-20T03:01:42.739Z,6.38
2023-03-20T03:02:14.248Z,6.38
2023-03-20T03:02:34.853Z,6.38
2023-03-20T03:03:01.646Z,6.38
2023-03-20T03:03:33.679Z,6.27
2023-03-20T03:04:05.666Z,6.27
2023-03-20T03:04:35.254Z,6.27
2023-03-20T03:04:53.508Z,6.27
2023-03-20T03:05:26.581Z,6.27
2023-03-20T03:05:57.523Z,6.27
2023-03-20T03:06:30.488Z,6.27
2023-03-20T03:07:01.631Z,6.27
2023-03-20T03:07:34.983Z,6.27
2023-03-20T03:08:05.572Z,6.22
2023-03-20T03:08:34.823Z,6.22
2023-03-20T03:08:53.520Z,6.22
2023-03-20T03:09:25.680Z,6.22
2023-03-20T03:09:42.729Z,6.22
2023-03-20T03:10:13.705Z,6.22
2023-03-20T03:10:35.146Z,6.22
2023-03-20T03:11:02.441Z,6.22
2023-03-20T03:11:33.756Z,6.22
2023-03-20T03:12:06.696Z,6.22
2023-03-20T03:12:34.835Z,6.22
2023-03-20T03:12:53.524Z,6.22
2023-03-20T03:13:25.680Z,6.22
2023-03-20T03:13:57.899Z,6.22
2023-03-20T03:14:29.561Z,5.00
2023-03-20T03:15:01.952Z,6.22
2023-03-20T03:15:34.003Z,6.22
2023-03-20T03:16:05.642Z,6.22
2023-03-20T03:16:34.892Z,6.22
2023-03-20T03:16:53.861Z,6.22
2023-03-20T03:17:26.286Z,6.22
2023-03-20T03:17:42.734Z,6.22
2023-03-20T03:18:13.583Z,6.22
2023-03-20T03:18:34.931Z,6.22
2023-03-20T03:19:01.516Z,6.22
2023-03-20T03:19:34.552Z,6.22
2023-03-20T03:20:05.800Z,6.22
2023-03-20T03:20:36.442Z,6.22
2023-03-20T03:20:53.722Z,6.22
2023-03-20T03:21:25.672Z,6.22
2023-03-20T03:21:43.384Z,6.22
2023-03-20T03:22:13.746Z,6.22
2023-03-20T03:22:34.932Z,6.22
2023-03-20T03:23:01.612Z,6.22
2023-03-20T03:23:33.582Z,6.11
2023-03-20T03:24:06.287Z,6.11
2023-03-20T03:24:40.699Z,6.11
2023-03-20T03:24:53.602Z,6.11
2023-03-20T03:25:25.871Z,6.11
2023-03-20T03:25:42.740Z,6.11
2023-03-20T03:26:14.318Z,6.11
2023-03-20T03:26:34.930Z,6.11
2023-03-20T03:27:01.584Z,6.11
2023-03-20T03:27:33.591Z,6.11
2023-03-20T03:28:06.511Z,6.11
2023-03-20T03:28:34.959Z,6.11
2023-03-20T03:28:53.590Z,6.11
2023-03-20T03:29:25.675Z,6.11
2023-03-20T03:29:42.672Z,6.11
2023-03-20T03:30:14.732Z,6.11
2023-03-20T03:30:35.592Z,6.11
2023-03-20T03:31:01.555Z,6.11
2023-03-20T03:31:33.645Z,6.11
2023-03-20T03:32:05.762Z,6.11
2023-03-20T03:32:34.922Z,6.11
2023-03-20T03:32:53.566Z,6.11
2023-03-20T03:33:26.595Z,6.11
2023-03-20T03:33:57.558Z,6.11
2023-03-20T03:34:30.426Z,6.11
2023-03-20T03:35:02.018Z,6.11
2023-03-20T03:35:34.945Z,6.11
2023-03-20T03:36:05.669Z,6.11
2023-03-20T03:36:35.830Z,6.11
2023-03-20T03:36:53.610Z,6.11
2023-03-20T03:37:25.753Z,6.11
2023-03-20T03:37:43.624Z,6.11
2023-03-20T03:38:13.675Z,6.11
2023-03-20T03:38:34.823Z,6.11
2023-03-20T03:39:01.597Z,6.11
2023-03-20T03:39:33.563Z,6.11
2023-03-20T03:40:06.983Z,6.11
2023-03-20T03:40:35.142Z,6.11
2023-03-20T03:40:53.698Z,6.11
2023-03-20T03:41:25.731Z,6.11
2023-03-20T03:41:42.695Z,6.11
2023-03-20T03:42:14.410Z,6.11
2023-03-20T03:42:34.882Z,6.11
2023-03-20T03:43:01.580Z,6.11
2023-03-20T03:43:33.891Z,6.11
2023-03-20T03:44:05.768Z,6.11
2023-03-20T03:44:34.839Z,6.11
2023-03-20T03:44:53.538Z,6.11
2023-03-20T03:45:26.627Z,6.11
2023-03-20T03:45:57.526Z,6.11
2023-03-20T03:46:30.328Z,6.11
2023-03-20T03:47:01.596Z,6.11
2023-03-20T03:47:34.450Z,6.11
2023-03-20T03:48:05.567Z,6.11
2023-03-20T03:48:35.693Z,6.11
2023-03-20T03:48:53.585Z,6.11
2023-03-20T03:49:25.665Z,6.11
2023-03-20T03:49:43.551Z,6.11
2023-03-20T03:50:13.747Z,6.11
2023-03-20T03:50:34.856Z,6.11
2023-03-20T03:51:01.619Z,6.11
2023-03-20T03:51:33.713Z,6.11
2023-03-20T03:52:06.572Z,6.11
2023-03-20T03:52:34.947Z,6.11
2023-03-20T03:52:53.566Z,6.11
2023-03-20T03:53:25.708Z,6.11
2023-03-20T03:53:42.677Z,6.11
2023-03-20T03:54:14.357Z,6.11
2023-03-20T03:54:35.329Z,6.11
2023-03-20T03:55:01.713Z,6.11
2023-03-20T03:55:34.310Z,6.11
2023-03-20T03:56:05.622Z,6.11
2023-03-20T03:56:34.888Z,6.11
2023-03-20T03:56:53.543Z,6.11
2023-03-20T03:57:26.627Z,6.11
2023-03-20T03:57:57.612Z,6.11
2023-03-20T03:58:30.502Z,6.00
2023-03-20T03:59:01.605Z,6.00
2023-03-20T03:59:34.551Z,6.00
2023-03-20T04:00:06.138Z,6.00
2023-03-20T04:00:36.580Z,6.00
2023-03-20T04:00:53.675Z,6.00
2023-03-20T04:01:34.945Z,6.00
2023-03-20T04:01:58.224Z,6.00
2023-03-20T04:02:29.593Z,6.00
2023-03-20T04:03:02.572Z,4.84
2023-03-20T04:03:34.368Z,6.00
2023-03-20T04:04:06.530Z,6.00
2023-03-20T04:04:34.997Z,6.00
2023-03-20T04:04:53.663Z,6.00
2023-03-20T04:05:25.939Z,6.00
2023-03-20T04:05:42.658Z,6.00
2023-03-20T04:06:14.225Z,6.00
2023-03-20T04:06:35.687Z,6.00
2023-03-20T04:07:01.621Z,6.00
2023-03-20T04:07:33.602Z,5.88
2023-03-20T04:08:05.601Z,5.88
2023-03-20T04:08:35.229Z,4.80
2023-03-20T04:08:53.553Z,5.88
2023-03-20T04:09:26.787Z,5.88
2023-03-20T04:09:57.543Z,4.60
2023-03-20T04:10:30.910Z,5.88
2023-03-20T04:11:01.702Z,5.88
2023-03-20T04:11:35.702Z,5.88
2023-03-20T04:12:05.653Z,5.88
2023-03-20T04:12:34.980Z,5.88
2023-03-20T04:12:53.592Z,5.88
2023-03-20T04:13:25.876Z,5.88
2023-03-20T04:13:58.513Z,5.88
2023-03-20T04:14:29.693Z,5.88
2023-03-20T04:15:03.534Z,5.88
2023-03-20T04:15:33.901Z,5.88
2023-03-20T04:16:06.458Z,5.88
2023-03-20T04:16:35.127Z,5.88
2023-03-20T04:16:53.570Z,5.77
2023-03-20T04:17:25.761Z,5.77
2023-03-20T04:17:42.737Z,5.77
2023-03-20T04:18:14.358Z,5.77
2023-03-20T04:18:34.953Z,5.77
2023-03-20T04:19:01.646Z,5.77
2023-03-20T04:19:33.896Z,5.77
2023-03-20T04:20:05.834Z,5.77
2023-03-20T04:20:35.132Z,5.77
2023-03-20T04:20:54.078Z,5.77
2023-03-20T04:21:26.665Z,5.77
2023-03-20T04:21:57.602Z,5.77
2023-03-20T04:22:30.368Z,5.77
2023-03-20T04:23:01.674Z,5.77
2023-03-20T04:23:34.641Z,5.72
2023-03-20T04:24:05.656Z,5.72
2023-03-20T04:24:36.418Z,5.72
2023-03-20T04:24:53.528Z,5.72
2023-03-20T04:25:25.886Z,5.72
2023-03-20T04:25:43.538Z,5.72
2023-03-20T04:26:13.699Z,5.72
2023-03-20T04:26:34.877Z,5.72
2023-03-20T04:27:01.562Z,5.72
2023-03-20T04:27:33.569Z,5.72
2023-03-20T04:28:06.591Z,5.72
2023-03-20T04:28:34.848Z,5.72
2023-03-20T04:28:53.560Z,5.61
2023-03-20T04:29:25.720Z,5.61
2023-03-20T04:29:42.685Z,5.61
2023-03-20T04:30:14.874Z,5.61
2023-03-20T04:30:34.894Z,5.61
2023-03-20T04:31:01.571Z,5.61
2023-03-20T04:31:33.684Z,5.61
2023-03-20T04:32:05.650Z,5.61
2023-03-20T04:32:34.990Z,5.61
2023-03-20T04:32:53.562Z,5.61
2023-03-20T04:33:27.725Z,5.61
2023-03-20T04:33:57.604Z,5.61
2023-03-20T04:34:30.672Z,5.61
2023-03-20T04:35:01.941Z,5.61
2023-03-20T04:35:35.400Z,5.61
2023-03-20T04:36:05.758Z,5.61
2023-03-20T04:36:35.017Z,5.61
2023-03-20T04:36:53.578Z,5.61
2023-03-20T04:37:25.744Z,5.61
2023-03-20T04:37:42.726Z,5.61
2023-03-20T04:38:13.560Z,5.61
2023-03-20T04:38:34.864Z,5.61
2023-03-20T04:39:02.538Z,5.50
2023-03-20T04:39:33.698Z,5.50
2023-03-20T04:40:06.703Z,5.50
2023-03-20T04:40:34.822Z,5.50
2023-03-20T04:40:53.678Z,5.50
2023-03-20T04:41:25.667Z,5.50
2023-03-20T04:41:42.720Z,5.50
2023-03-20T04:42:14.387Z,5.50
2023-03-20T04:42:35.626Z,5.50
2023-03-20T04:43:01.564Z,5.50
2023-03-20T04:43:33.619Z,5.50
2023-03-20T04:44:05.773Z,5.50
2023-03-20T04:44:35.286Z,5.50
2023-03-20T04:44:53.579Z,5.50
2023-03-20T04:45:26.876Z,5.50
2023-03-20T04:45:57.609Z,5.50
2023-03-20T04:46:30.341Z,5.50
2023-03-20T04:47:02.699Z,5.50
2023-03-20T04:47:34.577Z,5.50
2023-03-20T04:48:05.660Z,5.50
2023-03-20T04:48:35.909Z,5.50
2023-03-20T04:48:53.536Z,5.50
2023-03-20T04:49:25.716Z,5.50
2023-03-20T04:49:43.372Z,5.50
2023-03-20T04:50:13.676Z,5.50
2023-03-20T04:50:35.347Z,5.50
2023-03-20T04:51:01.640Z,5.61
2023-03-20T04:51:33.575Z,5.61
2023-03-20T04:52:06.232Z,5.61
2023-03-20T04:52:35.061Z,5.61
2023-03-20T04:52:53.602Z,5.50
2023-03-20T04:53:27.208Z,5.50
2023-03-20T04:53:42.729Z,5.50
2023-03-20T04:54:14.405Z,5.50
2023-03-20T04:54:35.288Z,5.50
2023-03-20T04:55:01.855Z,5.50
2023-03-20T04:55:33.702Z,5.50
2023-03-20T04:56:05.584Z,5.50
2023-03-20T04:56:34.807Z,5.50
2023-03-20T04:56:53.596Z,5.50
2023-03-20T04:57:26.325Z,5.50
2023-03-20T04:57:42.805Z,5.50
2023-03-20T04:58:13.642Z,5.50
2023-03-20T04:58:34.828Z,5.50
2023-03-20T04:59:01.498Z,5.50
2023-03-20T04:59:34.214Z,5.50
2023-03-20T05:00:06.122Z,5.50
2023-03-20T05:00:36.609Z,5.50
2023-03-20T05:01:10.626Z,5.50
2023-03-20T05:01:34.904Z,5.50
2023-03-20T05:01:57.845Z,5.50
2023-03-20T05:02:29.572Z,5.50
2023-03-20T05:03:02.513Z,5.50
2023-03-20T05:03:33.684Z,5.50
2023-03-20T05:04:06.494Z,5.50
2023-03-20T05:04:35.129Z,5.50
2023-03-20T05:04:53.571Z,5.50
2023-03-20T05:05:25.965Z,5.50
2023-03-20T05:05:42.749Z,5.50
2023-03-20T05:06:14.293Z,5.50
2023-03-20T05:06:34.961Z,5.50
2023-03-20T05:07:01.592Z,5.50
2023-03-20T05:07:33.803Z,5.50
2023-03-20T05:08:05.606Z,5.50
2023-03-20T05:08:35.356Z,5.50
2023-03-20T05:08:53.598Z,5.50
2023-03-20T05:09:26.680Z,5.50
2023-03-20T05:09:57.665Z,5.50
2023-03-20T05:10:30.756Z,5.50
2023-03-20T05:11:01.672Z,5.50
2023-03-20T05:11:35.686Z,5.50
2023-03-20T05:12:05.849Z,5.50
2023-03-20T05:12:34.726Z,5.50
2023-03-20T05:12:53.568Z,5.50
2023-03-20T05:13:25.682Z,5.50
2023-03-20T05:13:42.820Z,5.50
2023-03-20T05:14:13.617Z,5.50
2023-03-20T05:14:35.522Z,5.50
2023-03-20T05:15:02.855Z,5.50
2023-03-20T05:15:34.158Z,5.50
2023-03-20T05:16:06.671Z,5.50
2023-03-20T05:16:34.977Z,5.50
2023-03-20T05:16:53.693Z,5.50
2023-03-20T05:17:25.743Z,5.50
2023-03-20T05:17:42.751Z,5.50
2023-03-20T05:18:14.517Z,5.50
2023-03-20T05:18:34.782Z,5.50
2023-03-20T05:19:01.601Z,5.50
2023-03-20T05:19:34.736Z,5.50
2023-03-20T05:20:05.768Z,5.50
2023-03-20T05:20:34.900Z,5.50
2023-03-20T05:20:53.864Z,5.50
2023-03-20T05:21:26.541Z,5.50
2023-03-20T05:21:57.570Z,5.50
2023-03-20T05:22:30.370Z,5.50
2023-03-20T05:23:01.614Z,5.50
2023-03-20T05:23:34.402Z,5.50
2023-03-20T05:24:05.625Z,5.50
2023-03-20T05:24:35.782Z,5.50
2023-03-20T05:24:53.572Z,5.50
2023-03-20T05:25:25.870Z,5.50
2023-03-20T05:25:43.525Z,5.50
2023-03-20T05:26:13.590Z,5.50
2023-03-20T05:26:34.948Z,5.50
2023-03-20T05:27:01.579Z,5.50
2023-03-20T05:27:33.601Z,5.50
2023-03-20T05:28:08.237Z,5.50
2023-03-20T05:28:35.227Z,5.50
2023-03-20T05:28:53.615Z,5.50
2023-03-20T05:29:25.728Z,5.50
2023-03-20T05:29:42.692Z,5.50
2023-03-20T05:30:14.846Z,5.50
2023-03-20T05:30:34.981Z,5.50
2023-03-20T05:31:01.694Z,5.50
2023-03-20T05:31:33.548Z,5.50
2023-03-20T05:32:05.652Z,5.50
2023-03-20T05:32:34.917Z,5.50
2023-03-20T05:32:53.566Z,5.50
2023-03-20T05:33:26.360Z,5.50
2023-03-20T05:33:42.843Z,5.50
2023-03-20T05:34:13.646Z,5.50
2023-03-20T05:34:35.225Z,5.50
2023-03-20T05:35:01.817Z,5.50
2023-03-20T05:35:35.358Z,5.50
2023-03-20T05:36:05.685Z,5.50
2023-03-20T05:36:35.806Z,5.50
2023-03-20T05:36:53.535Z,5.50
2023-03-20T05:37:25.913Z,5.50
2023-03-20T05:37:43.776Z,5.50
2023-03-20T05:38:13.577Z,5.50
2023-03-20T05:38:34.974Z,5.50
2023-03-20T05:39:01.631Z,5.50
2023-03-20T05:39:34.019Z,5.50
2023-03-20T05:40:06.696Z,5.50
2023-03-20T05:40:35.158Z,5.50
2023-03-20T05:40:53.964Z,5.50
2023-03-20T05:41:26.070Z,5.50
2023-03-20T05:41:45.292Z,5.50
2023-03-20T05:42:14.463Z,5.50
2023-03-20T05:42:35.105Z,5.50
2023-03-20T05:43:01.720Z,5.50
2023-03-20T05:43:33.741Z,5.50
2023-03-20T05:44:05.960Z,5.61
2023-03-20T05:44:35.007Z,5.61
2023-03-20T05:44:53.738Z,5.61
2023-03-20T05:45:26.880Z,5.61
2023-03-20T05:45:57.769Z,5.61
2023-03-20T05:46:30.741Z,5.61
2023-03-20T05:47:01.721Z,5.61
2023-03-20T05:47:35.041Z,5.61
2023-03-20T05:48:05.746Z,5.61
2023-03-20T05:48:37.151Z,5.61
2023-03-20T05:48:53.542Z,5.50
2023-03-20T05:49:25.942Z,5.50
2023-03-20T05:49:43.659Z,5.61
2023-03-20T05:50:14.022Z,5.61
2023-03-20T05:50:35.145Z,5.61
2023-03-20T05:51:01.758Z,5.61
2023-03-20T05:51:34.065Z,5.61
2023-03-20T05:52:06.795Z,5.61
2023-03-20T05:52:34.975Z,5.61
2023-03-20T05:52:53.964Z,5.61
2023-03-20T05:53:25.889Z,5.61
2023-03-20T05:53:42.863Z,5.61
2023-03-20T05:54:14.734Z,5.61
2023-03-20T05:54:35.689Z,5.61
2023-03-20T05:55:01.839Z,5.61
2023-03-20T05:55:34.354Z,5.61
2023-03-20T05:56:05.725Z,5.61
2023-03-20T05:56:35.182Z,5.61
2023-03-20T05:56:53.885Z,5.61
2023-03-20T05:57:26.522Z,5.72
2023-03-20T05:57:57.862Z,5.72
2023-03-20T05:58:30.641Z,5.72
2023-03-20T05:59:01.756Z,5.72
2023-03-20T05:59:34.928Z,5.72
2023-03-20T06:00:06.641Z,5.72
2023-03-20T06:00:35.866Z,5.72
2023-03-20T06:00:53.907Z,5.72
2023-03-20T06:01:25.837Z,5.72
2023-03-20T06:01:43.673Z,5.72
2023-03-20T06:02:13.845Z,5.72
2023-03-20T06:02:35.092Z,5.72
2023-03-20T06:03:01.818Z,5.72
2023-03-20T06:03:34.969Z,5.72
2023-03-20T06:04:07.216Z,5.72
2023-03-20T06:04:35.109Z,5.72
2023-03-20T06:04:53.693Z,5.72
2023-03-20T06:05:26.163Z,5.77
2023-03-20T06:05:42.901Z,5.77
2023-03-20T06:06:14.956Z,5.77
2023-03-20T06:06:35.280Z,5.77
2023-03-20T06:07:01.749Z,5.77
2023-03-20T06:07:34.154Z,5.77